sensor_id;sensor_type;location;lat;lon;timestamp;P1;durP1;ratioP1;P2;durP2;ratioP2
60504;SDS011;46348;0.000;0.000;2024-01-11T00:01:38;8.02;;;7.43;;
60504;SDS011;46348;0.000;0.000;2024-01-11T00:04:04;8.45;;;7.75;;
60504;SDS011;46348;0.000;0.000;2024-01-11T00:06:30;7.97;;;7.38;;
60504;SDS011;46348;0.000;0.000;2024-01-11T00:08:56;8.52;;;7.82;;
60504;SDS011;46348;0.000;0.000;2024-01-11T00:11:22;8.10;;;7.40;;
60504;SDS011;46348;0.000;0.000;2024-01-11T00:13:48;8.23;;;7.63;;
60504;SDS011;46348;0.000;0.000;2024-01-11T00:16:15;8.07;;;7.47;;
60504;SDS011;46348;0.000;0.000;2024-01-11T00:18:41;7.93;;;7.32;;
60504;SDS011;46348;0.000;0.000;2024-01-11T00:21:07;8.38;;;7.68;;
60504;SDS011;46348;0.000;0.000;2024-01-11T00:23:33;8.32;;;7.63;;
60504;SDS011;46348;0.000;0.000;2024-01-11T00:25:59;7.95;;;7.35;;
60504;SDS011;46348;0.000;0.000;2024-01-11T00:28:25;8.20;;;7.47;;
60504;SDS011;46348;0.000;0.000;2024-01-11T00:30:51;8.50;;;7.80;;
60504;SDS011;46348;0.000;0.000;2024-01-11T00:33:17;7.93;;;7.32;;
60504;SDS011;46348;0.000;0.000;2024-01-11T00:35:44;8.45;;;7.75;;
60504;SDS011;46348;0.000;0.000;2024-01-11T00:38:30;8.40;;;7.70;;
60504;SDS011;46348;0.000;0.000;2024-01-11T00:40:56;8.07;;;7.40;;
60504;SDS011;46348;0.000;0.000;2024-01-11T00:43:22;8.13;;;7.50;;
60504;SDS011;46348;0.000;0.000;2024-01-11T00:45:48;7.88;;;7.20;;
60504;SDS011;46348;0.000;0.000;2024-01-11T00:48:14;8.02;;;7.43;;
60504;SDS011;46348;0.000;0.000;2024-01-11T00:50:40;8.50;;;7.80;;
60504;SDS011;46348;0.000;0.000;2024-01-11T00:53:06;8.25;;;7.55;;
60504;SDS011;46348;0.000;0.000;2024-01-11T00:55:34;7.93;;;7.30;;
60504;SDS011;46348;0.000;0.000;2024-01-11T00:58:00;8.23;;;7.63;;
60504;SDS011;46348;0.000;0.000;2024-01-11T01:00:26;8.32;;;7.68;;
60504;SDS011;46348;0.000;0.000;2024-01-11T01:02:53;8.35;;;7.68;;
60504;SDS011;46348;0.000;0.000;2024-01-11T01:05:19;8.52;;;7.80;;
60504;SDS011;46348;0.000;0.000;2024-01-11T01:07:45;8.15;;;7.45;;
60504;SDS011;46348;0.000;0.000;2024-01-11T01:10:11;8.55;;;7.85;;
60504;SDS011;46348;0.000;0.000;2024-01-11T01:12:37;8.60;;;7.90;;
60504;SDS011;46348;0.000;0.000;2024-01-11T01:15:04;8.98;;;8.27;;
60504;SDS011;46348;0.000;0.000;2024-01-11T01:17:30;8.32;;;7.63;;
60504;SDS011;46348;0.000;0.000;2024-01-11T01:19:56;8.20;;;7.60;;
60504;SDS011;46348;0.000;0.000;2024-01-11T01:22:22;8.45;;;7.65;;
60504;SDS011;46348;0.000;0.000;2024-01-11T01:24:48;8.60;;;7.90;;
60504;SDS011;46348;0.000;0.000;2024-01-11T01:27:16;8.68;;;7.88;;
60504;SDS011;46348;0.000;0.000;2024-01-11T01:29:42;8.55;;;7.85;;
60504;SDS011;46348;0.000;0.000;2024-01-11T01:32:08;8.55;;;7.85;;
60504;SDS011;46348;0.000;0.000;2024-01-11T01:34:34;8.25;;;7.65;;
60504;SDS011;46348;0.000;0.000;2024-01-11T01:37:00;8.50;;;7.80;;
60504;SDS011;46348;0.000;0.000;2024-01-11T01:39:27;8.30;;;7.70;;
60504;SDS011;46348;0.000;0.000;2024-01-11T01:41:53;8.13;;;7.43;;
60504;SDS011;46348;0.000;0.000;2024-01-11T01:44:19;9.00;;;8.30;;
60504;SDS011;46348;0.000;0.000;2024-01-11T01:47:05;8.43;;;7.78;;
60504;SDS011;46348;0.000;0.000;2024-01-11T01:49:31;8.80;;;8.00;;
60504;SDS011;46348;0.000;0.000;2024-01-11T01:51:57;8.57;;;7.88;;
60504;SDS011;46348;0.000;0.000;2024-01-11T01:54:24;8.00;;;7.40;;
60504;SDS011;46348;0.000;0.000;2024-01-11T01:56:51;8.27;;;7.57;;
60504;SDS011;46348;0.000;0.000;2024-01-11T01:59:18;8.15;;;7.53;;
60504;SDS011;46348;0.000;0.000;2024-01-11T02:01:45;8.65;;;7.95;;
60504;SDS011;46348;0.000;0.000;2024-01-11T02:04:11;8.02;;;7.43;;
60504;SDS011;46348;0.000;0.000;2024-01-11T02:06:39;8.27;;;7.57;;
60504;SDS011;46348;0.000;0.000;2024-01-11T02:09:06;8.40;;;7.70;;
60504;SDS011;46348;0.000;0.000;2024-01-11T02:11:33;8.32;;;7.65;;
60504;SDS011;46348;0.000;0.000;2024-01-11T02:13:59;8.55;;;7.85;;
60504;SDS011;46348;0.000;0.000;2024-01-11T02:16:32;8.32;;;7.65;;
60504;SDS011;46348;0.000;0.000;2024-01-11T02:18:58;8.77;;;8.07;;
60504;SDS011;46348;0.000;0.000;2024-01-11T02:21:24;8.65;;;7.95;;
60504;SDS011;46348;0.000;0.000;2024-01-11T02:24:09;8.45;;;7.72;;
60504;SDS011;46348;0.000;0.000;2024-01-11T02:26:35;8.38;;;7.60;;
60504;SDS011;46348;0.000;0.000;2024-01-11T02:29:01;9.00;;;8.20;;
60504;SDS011;46348;0.000;0.000;2024-01-11T02:31:28;8.25;;;7.55;;
60504;SDS011;46348;0.000;0.000;2024-01-11T02:33:54;8.20;;;7.60;;
60504;SDS011;46348;0.000;0.000;2024-01-11T02:36:21;8.45;;;7.75;;
60504;SDS011;46348;0.000;0.000;2024-01-11T02:38:47;8.48;;;7.78;;
60504;SDS011;46348;0.000;0.000;2024-01-11T02:41:15;8.50;;;7.80;;
60504;SDS011;46348;0.000;0.000;2024-01-11T02:43:48;8.60;;;7.90;;
60504;SDS011;46348;0.000;0.000;2024-01-11T02:46:15;8.98;;;8.18;;
60504;SDS011;46348;0.000;0.000;2024-01-11T02:48:41;8.63;;;7.93;;
60504;SDS011;46348;0.000;0.000;2024-01-11T02:51:27;8.40;;;7.70;;
60504;SDS011;46348;0.000;0.000;2024-01-11T02:53:54;8.60;;;7.90;;
60504;SDS011;46348;0.000;0.000;2024-01-11T02:56:20;8.55;;;7.85;;
60504;SDS011;46348;0.000;0.000;2024-01-11T02:58:47;8.52;;;7.82;;
60504;SDS011;46348;0.000;0.000;2024-01-11T03:01:13;8.80;;;8.10;;
60504;SDS011;46348;0.000;0.000;2024-01-11T03:03:39;8.82;;;8.13;;
60504;SDS011;46348;0.000;0.000;2024-01-11T03:06:05;8.60;;;7.90;;
60504;SDS011;46348;0.000;0.000;2024-01-11T03:08:31;8.40;;;7.70;;
60504;SDS011;46348;0.000;0.000;2024-01-11T03:10:57;8.43;;;7.78;;
60504;SDS011;46348;0.000;0.000;2024-01-11T03:13:23;8.20;;;7.60;;
60504;SDS011;46348;0.000;0.000;2024-01-11T03:15:50;8.63;;;8.00;;
60504;SDS011;46348;0.000;0.000;2024-01-11T03:18:16;8.98;;;8.25;;
60504;SDS011;46348;0.000;0.000;2024-01-11T03:20:42;8.77;;;8.07;;
60504;SDS011;46348;0.000;0.000;2024-01-11T03:23:08;8.77;;;8.07;;
60504;SDS011;46348;0.000;0.000;2024-01-11T03:25:34;9.60;;;8.80;;
60504;SDS011;46348;0.000;0.000;2024-01-11T03:28:00;8.30;;;7.60;;
60504;SDS011;46348;0.000;0.000;2024-01-11T03:30:27;9.32;;;8.52;;
60504;SDS011;46348;0.000;0.000;2024-01-11T03:32:54;9.07;;;8.38;;
60504;SDS011;46348;0.000;0.000;2024-01-11T03:35:20;8.70;;;8.00;;
60504;SDS011;46348;0.000;0.000;2024-01-11T03:37:46;8.95;;;8.25;;
60504;SDS011;46348;0.000;0.000;2024-01-11T03:40:12;9.30;;;8.50;;
60504;SDS011;46348;0.000;0.000;2024-01-11T03:42:39;9.13;;;8.32;;
60504;SDS011;46348;0.000;0.000;2024-01-11T03:45:05;8.90;;;8.13;;
60504;SDS011;46348;0.000;0.000;2024-01-11T03:47:31;8.75;;;8.05;;
60504;SDS011;46348;0.000;0.000;2024-01-11T03:49:58;9.25;;;8.52;;
60504;SDS011;46348;0.000;0.000;2024-01-11T03:52:24;8.60;;;7.90;;
60504;SDS011;46348;0.000;0.000;2024-01-11T03:54:50;9.13;;;8.38;;
60504;SDS011;46348;0.000;0.000;2024-01-11T03:57:16;9.43;;;8.60;;
60504;SDS011;46348;0.000;0.000;2024-01-11T03:59:43;8.27;;;7.57;;
60504;SDS011;46348;0.000;0.000;2024-01-11T04:02:10;9.43;;;8.63;;
60504;SDS011;46348;0.000;0.000;2024-01-11T04:04:36;9.10;;;8.40;;
60504;SDS011;46348;0.000;0.000;2024-01-11T04:07:02;9.13;;;8.32;;
60504;SDS011;46348;0.000;0.000;2024-01-11T04:09:28;9.00;;;8.30;;
60504;SDS011;46348;0.000;0.000;2024-01-11T04:11:55;9.13;;;8.43;;
60504;SDS011;46348;0.000;0.000;2024-01-11T04:14:21;8.60;;;7.95;;
60504;SDS011;46348;0.000;0.000;2024-01-11T04:16:47;8.82;;;8.05;;
60504;SDS011;46348;0.000;0.000;2024-01-11T04:19:13;9.10;;;8.30;;
60504;SDS011;46348;0.000;0.000;2024-01-11T04:21:39;9.63;;;8.82;;
60504;SDS011;46348;0.000;0.000;2024-01-11T04:24:25;9.15;;;8.35;;
60504;SDS011;46348;0.000;0.000;2024-01-11T04:26:51;9.60;;;8.80;;
60504;SDS011;46348;0.000;0.000;2024-01-11T04:29:17;9.27;;;8.48;;
60504;SDS011;46348;0.000;0.000;2024-01-11T04:31:44;9.45;;;8.52;;
60504;SDS011;46348;0.000;0.000;2024-01-11T04:34:10;9.02;;;8.30;;
60504;SDS011;46348;0.000;0.000;2024-01-11T04:36:38;9.50;;;8.70;;
60504;SDS011;46348;0.000;0.000;2024-01-11T04:39:05;9.57;;;8.77;;
60504;SDS011;46348;0.000;0.000;2024-01-11T04:41:34;8.90;;;8.20;;
60504;SDS011;46348;0.000;0.000;2024-01-11T04:44:02;9.38;;;8.57;;
60504;SDS011;46348;0.000;0.000;2024-01-11T04:46:28;9.48;;;8.68;;
60504;SDS011;46348;0.000;0.000;2024-01-11T04:48:54;9.70;;;8.90;;
60504;SDS011;46348;0.000;0.000;2024-01-11T04:51:20;9.43;;;8.63;;
60504;SDS011;46348;0.000;0.000;2024-01-11T04:53:47;8.75;;;8.05;;
60504;SDS011;46348;0.000;0.000;2024-01-11T04:56:14;6.82;;;6.22;;
60504;SDS011;46348;0.000;0.000;2024-01-11T04:58:40;6.90;;;6.38;;
60504;SDS011;46348;0.000;0.000;2024-01-11T05:01:17;6.47;;;5.97;;
60504;SDS011;46348;0.000;0.000;2024-01-11T05:03:43;4.90;;;4.50;;
60504;SDS011;46348;0.000;0.000;2024-01-11T05:06:17;4.65;;;4.25;;
60504;SDS011;46348;0.000;0.000;2024-01-11T05:08:44;4.60;;;4.15;;
60504;SDS011;46348;0.000;0.000;2024-01-11T05:11:20;5.35;;;4.10;;
60504;SDS011;46348;0.000;0.000;2024-01-11T05:13:46;7.63;;;3.58;;
60504;SDS011;46348;0.000;0.000;2024-01-11T05:16:33;4.55;;;3.30;;
60504;SDS011;46348;0.000;0.000;2024-01-11T05:19:00;4.57;;;3.45;;
60504;SDS011;46348;0.000;0.000;2024-01-11T05:21:26;4.80;;;3.30;;
60504;SDS011;46348;0.000;0.000;2024-01-11T05:23:53;4.47;;;3.53;;
60504;SDS011;46348;0.000;0.000;2024-01-11T05:26:19;3.40;;;3.10;;
60504;SDS011;46348;0.000;0.000;2024-01-11T05:28:46;5.93;;;4.22;;
60504;SDS011;46348;0.000;0.000;2024-01-11T05:31:12;3.95;;;3.55;;
60504;SDS011;46348;0.000;0.000;2024-01-11T05:33:40;5.65;;;3.38;;
60504;SDS011;46348;0.000;0.000;2024-01-11T05:36:26;5.40;;;3.75;;
60504;SDS011;46348;0.000;0.000;2024-01-11T05:38:52;3.78;;;3.47;;
60504;SDS011;46348;0.000;0.000;2024-01-11T05:41:18;3.88;;;3.55;;
60504;SDS011;46348;0.000;0.000;2024-01-11T05:43:44;3.60;;;3.13;;
60504;SDS011;46348;0.000;0.000;2024-01-11T05:46:10;3.90;;;3.08;;
60504;SDS011;46348;0.000;0.000;2024-01-11T05:48:36;4.65;;;3.33;;
60504;SDS011;46348;0.000;0.000;2024-01-11T05:51:03;4.03;;;3.33;;
60504;SDS011;46348;0.000;0.000;2024-01-11T05:53:29;3.53;;;3.00;;
60504;SDS011;46348;0.000;0.000;2024-01-11T05:55:55;4.20;;;3.50;;
60504;SDS011;46348;0.000;0.000;2024-01-11T05:58:21;3.28;;;2.78;;
60504;SDS011;46348;0.000;0.000;2024-01-11T06:00:47;5.32;;;2.85;;
60504;SDS011;46348;0.000;0.000;2024-01-11T06:03:14;4.63;;;3.03;;
60504;SDS011;46348;0.000;0.000;2024-01-11T06:05:40;4.95;;;2.80;;
60504;SDS011;46348;0.000;0.000;2024-01-11T06:08:07;2.80;;;2.60;;
60504;SDS011;46348;0.000;0.000;2024-01-11T06:10:33;4.70;;;3.10;;
60504;SDS011;46348;0.000;0.000;2024-01-11T06:13:19;3.17;;;2.72;;
60504;SDS011;46348;0.000;0.000;2024-01-11T06:15:45;3.10;;;2.80;;
60504;SDS011;46348;0.000;0.000;2024-01-11T06:18:11;3.33;;;2.50;;
60504;SDS011;46348;0.000;0.000;2024-01-11T06:20:37;3.30;;;2.95;;
60504;SDS011;46348;0.000;0.000;2024-01-11T06:23:03;2.70;;;2.50;;
60504;SDS011;46348;0.000;0.000;2024-01-11T06:25:30;4.25;;;2.65;;
60504;SDS011;46348;0.000;0.000;2024-01-11T06:27:56;3.05;;;2.60;;
60504;SDS011;46348;0.000;0.000;2024-01-11T06:30:22;2.90;;;2.45;;
60504;SDS011;46348;0.000;0.000;2024-01-11T06:32:48;2.85;;;2.40;;
60504;SDS011;46348;0.000;0.000;2024-01-11T06:35:14;3.00;;;2.40;;
60504;SDS011;46348;0.000;0.000;2024-01-11T06:37:40;3.05;;;2.85;;
60504;SDS011;46348;0.000;0.000;2024-01-11T06:40:06;2.90;;;2.47;;
60504;SDS011;46348;0.000;0.000;2024-01-11T06:42:33;3.25;;;2.72;;
60504;SDS011;46348;0.000;0.000;2024-01-11T06:45:00;2.75;;;2.45;;
60504;SDS011;46348;0.000;0.000;2024-01-11T06:47:26;2.75;;;2.50;;
60504;SDS011;46348;0.000;0.000;2024-01-11T06:49:53;2.97;;;2.13;;
60504;SDS011;46348;0.000;0.000;2024-01-11T06:52:19;5.80;;;2.70;;
60504;SDS011;46348;0.000;0.000;2024-01-11T06:54:45;3.55;;;2.42;;
60504;SDS011;46348;0.000;0.000;2024-01-11T06:57:11;2.53;;;2.33;;
60504;SDS011;46348;0.000;0.000;2024-01-11T06:59:37;3.28;;;2.53;;
60504;SDS011;46348;0.000;0.000;2024-01-11T07:02:03;3.47;;;2.50;;
60504;SDS011;46348;0.000;0.000;2024-01-11T07:04:30;2.35;;;2.15;;
60504;SDS011;46348;0.000;0.000;2024-01-11T07:06:56;2.55;;;2.35;;
60504;SDS011;46348;0.000;0.000;2024-01-11T07:09:23;2.90;;;2.55;;
60504;SDS011;46348;0.000;0.000;2024-01-11T07:11:49;3.83;;;2.50;;
60504;SDS011;46348;0.000;0.000;2024-01-11T07:14:15;2.53;;;2.33;;
60504;SDS011;46348;0.000;0.000;2024-01-11T07:16:41;3.42;;;2.45;;
60504;SDS011;46348;0.000;0.000;2024-01-11T07:19:07;3.03;;;2.25;;
60504;SDS011;46348;0.000;0.000;2024-01-11T07:21:33;2.63;;;2.42;;
60504;SDS011;46348;0.000;0.000;2024-01-11T07:23:59;2.88;;;2.20;;
60504;SDS011;46348;0.000;0.000;2024-01-11T07:26:26;2.63;;;2.10;;
60504;SDS011;46348;0.000;0.000;2024-01-11T07:28:52;3.70;;;2.33;;
60504;SDS011;46348;0.000;0.000;2024-01-11T07:31:22;2.80;;;2.30;;
60504;SDS011;46348;0.000;0.000;2024-01-11T07:33:48;3.25;;;2.40;;
60504;SDS011;46348;0.000;0.000;2024-01-11T07:36:15;2.92;;;2.22;;
60504;SDS011;46348;0.000;0.000;2024-01-11T07:38:41;3.22;;;2.10;;
60504;SDS011;46348;0.000;0.000;2024-01-11T07:41:27;2.92;;;2.03;;
60504;SDS011;46348;0.000;0.000;2024-01-11T07:43:53;3.08;;;2.15;;
60504;SDS011;46348;0.000;0.000;2024-01-11T07:46:23;3.55;;;2.47;;
60504;SDS011;46348;0.000;0.000;2024-01-11T07:48:49;5.07;;;2.00;;
60504;SDS011;46348;0.000;0.000;2024-01-11T07:51:36;2.40;;;2.20;;
60504;SDS011;46348;0.000;0.000;2024-01-11T07:54:02;2.53;;;2.33;;
60504;SDS011;46348;0.000;0.000;2024-01-11T07:56:31;2.95;;;2.33;;
60504;SDS011;46348;0.000;0.000;2024-01-11T07:58:57;5.13;;;2.30;;
60504;SDS011;46348;0.000;0.000;2024-01-11T08:01:23;6.35;;;2.10;;
60504;SDS011;46348;0.000;0.000;2024-01-11T08:03:50;3.88;;;2.25;;
60504;SDS011;46348;0.000;0.000;2024-01-11T08:06:18;2.88;;;2.20;;
60504;SDS011;46348;0.000;0.000;2024-01-11T08:08:44;3.17;;;2.17;;
60504;SDS011;46348;0.000;0.000;2024-01-11T08:11:16;3.47;;;2.30;;
60504;SDS011;46348;0.000;0.000;2024-01-11T08:13:43;3.38;;;2.10;;
60504;SDS011;46348;0.000;0.000;2024-01-11T08:16:29;3.38;;;2.40;;
60504;SDS011;46348;0.000;0.000;2024-01-11T08:19:15;3.55;;;2.10;;
60504;SDS011;46348;0.000;0.000;2024-01-11T08:21:42;4.80;;;2.17;;
60504;SDS011;46348;0.000;0.000;2024-01-11T08:24:08;3.10;;;2.30;;
60504;SDS011;46348;0.000;0.000;2024-01-11T08:26:34;2.60;;;2.10;;
60504;SDS011;46348;0.000;0.000;2024-01-11T08:29:00;2.72;;;2.03;;
60504;SDS011;46348;0.000;0.000;2024-01-11T08:31:47;3.38;;;3.08;;
60504;SDS011;46348;0.000;0.000;2024-01-11T08:34:13;2.92;;;2.42;;
60504;SDS011;46348;0.000;0.000;2024-01-11T08:36:39;3.65;;;2.58;;
60504;SDS011;46348;0.000;0.000;2024-01-11T08:39:06;3.95;;;2.55;;
60504;SDS011;46348;0.000;0.000;2024-01-11T08:41:33;3.08;;;2.58;;
60504;SDS011;46348;0.000;0.000;2024-01-11T08:44:01;3.42;;;2.38;;
60504;SDS011;46348;0.000;0.000;2024-01-11T08:46:47;2.25;;;2.00;;
60504;SDS011;46348;0.000;0.000;2024-01-11T08:49:14;2.67;;;1.98;;
60504;SDS011;46348;0.000;0.000;2024-01-11T08:51:40;2.30;;;2.10;;
60504;SDS011;46348;0.000;0.000;2024-01-11T08:54:06;3.33;;;2.00;;
60504;SDS011;46348;0.000;0.000;2024-01-11T08:56:34;2.70;;;2.17;;
60504;SDS011;46348;0.000;0.000;2024-01-11T08:59:01;2.92;;;2.00;;
60504;SDS011;46348;0.000;0.000;2024-01-11T09:01:27;3.38;;;2.08;;
60504;SDS011;46348;0.000;0.000;2024-01-11T09:03:54;2.42;;;1.88;;
60504;SDS011;46348;0.000;0.000;2024-01-11T09:06:21;4.32;;;2.25;;
60504;SDS011;46348;0.000;0.000;2024-01-11T09:08:47;2.33;;;2.05;;
60504;SDS011;46348;0.000;0.000;2024-01-11T09:11:15;2.28;;;1.90;;
60504;SDS011;46348;0.000;0.000;2024-01-11T09:13:41;2.55;;;2.03;;
60504;SDS011;46348;0.000;0.000;2024-01-11T09:16:08;3.13;;;1.90;;
60504;SDS011;46348;0.000;0.000;2024-01-11T09:18:34;2.10;;;1.80;;
60504;SDS011;46348;0.000;0.000;2024-01-11T09:21:00;3.88;;;1.90;;
60504;SDS011;46348;0.000;0.000;2024-01-11T09:23:46;2.10;;;1.90;;
60504;SDS011;46348;0.000;0.000;2024-01-11T09:26:13;1.95;;;1.80;;
60504;SDS011;46348;0.000;0.000;2024-01-11T09:28:39;2.28;;;1.85;;
60504;SDS011;46348;0.000;0.000;2024-01-11T09:31:05;2.30;;;1.85;;
60504;SDS011;46348;0.000;0.000;2024-01-11T09:33:51;1.73;;;1.60;;
60504;SDS011;46348;0.000;0.000;2024-01-11T09:36:17;2.60;;;1.90;;
60504;SDS011;46348;0.000;0.000;2024-01-11T09:38:44;2.08;;;1.98;;
60504;SDS011;46348;0.000;0.000;2024-01-11T09:41:12;1.83;;;1.73;;
60504;SDS011;46348;0.000;0.000;2024-01-11T09:43:40;1.75;;;1.63;;
60504;SDS011;46348;0.000;0.000;2024-01-11T09:46:07;1.60;;;1.50;;
60504;SDS011;46348;0.000;0.000;2024-01-11T09:48:40;2.75;;;1.90;;
60504;SDS011;46348;0.000;0.000;2024-01-11T09:51:08;1.75;;;1.65;;
60504;SDS011;46348;0.000;0.000;2024-01-11T09:53:35;1.60;;;1.50;;
60504;SDS011;46348;0.000;0.000;2024-01-11T09:56:02;2.10;;;1.90;;
60504;SDS011;46348;0.000;0.000;2024-01-11T09:58:30;2.03;;;1.85;;
60504;SDS011;46348;0.000;0.000;2024-01-11T10:00:56;1.70;;;1.60;;
60504;SDS011;46348;0.000;0.000;2024-01-11T10:03:24;2.45;;;1.60;;
60504;SDS011;46348;0.000;0.000;2024-01-11T10:05:53;2.22;;;1.80;;
60504;SDS011;46348;0.000;0.000;2024-01-11T10:08:22;1.90;;;1.80;;
60504;SDS011;46348;0.000;0.000;2024-01-11T10:10:49;2.08;;;1.90;;
60504;SDS011;46348;0.000;0.000;2024-01-11T10:13:15;1.80;;;1.70;;
60504;SDS011;46348;0.000;0.000;2024-01-11T10:15:42;1.85;;;1.65;;
60504;SDS011;46348;0.000;0.000;2024-01-11T10:18:08;1.80;;;1.70;;
60504;SDS011;46348;0.000;0.000;2024-01-11T10:20:34;1.75;;;1.65;;
60504;SDS011;46348;0.000;0.000;2024-01-11T10:23:02;2.00;;;1.70;;
60504;SDS011;46348;0.000;0.000;2024-01-11T10:25:28;2.08;;;1.70;;
60504;SDS011;46348;0.000;0.000;2024-01-11T10:27:54;4.03;;;2.20;;
60504;SDS011;46348;0.000;0.000;2024-01-11T10:30:20;2.63;;;2.30;;
60504;SDS011;46348;0.000;0.000;2024-01-11T10:32:48;2.30;;;1.90;;
60504;SDS011;46348;0.000;0.000;2024-01-11T10:35:15;5.35;;;2.17;;
60504;SDS011;46348;0.000;0.000;2024-01-11T10:37:43;2.13;;;1.92;;
60504;SDS011;46348;0.000;0.000;2024-01-11T10:40:10;3.25;;;2.40;;
60504;SDS011;46348;0.000;0.000;2024-01-11T10:42:49;4.22;;;2.20;;
60504;SDS011;46348;0.000;0.000;2024-01-11T10:45:17;2.00;;;1.60;;
60504;SDS011;46348;0.000;0.000;2024-01-11T10:47:50;2.97;;;1.90;;
60504;SDS011;46348;0.000;0.000;2024-01-11T10:50:19;1.88;;;1.77;;
60504;SDS011;46348;0.000;0.000;2024-01-11T10:55:17;2.43;;;1.87;;
60504;SDS011;46348;0.000;0.000;2024-01-11T10:57:45;2.22;;;1.90;;
60504;SDS011;46348;0.000;0.000;2024-01-11T11:00:12;2.67;;;1.98;;
60504;SDS011;46348;0.000;0.000;2024-01-11T11:02:38;2.88;;;1.80;;
60504;SDS011;46348;0.000;0.000;2024-01-11T11:05:05;2.00;;;1.90;;
60504;SDS011;46348;0.000;0.000;2024-01-11T11:07:35;5.22;;;3.70;;
60504;SDS011;46348;0.000;0.000;2024-01-11T11:10:02;2.97;;;2.47;;
60504;SDS011;46348;0.000;0.000;2024-01-11T11:12:30;2.10;;;1.90;;
60504;SDS011;46348;0.000;0.000;2024-01-11T11:14:59;2.58;;;2.00;;
60504;SDS011;46348;0.000;0.000;2024-01-11T11:17:26;2.75;;;1.90;;
60504;SDS011;46348;0.000;0.000;2024-01-11T11:19:52;2.00;;;1.80;;
60504;SDS011;46348;0.000;0.000;2024-01-11T11:22:19;2.53;;;1.88;;
60504;SDS011;46348;0.000;0.000;2024-01-11T11:24:45;2.03;;;1.73;;
60504;SDS011;46348;0.000;0.000;2024-01-11T11:27:15;1.90;;;1.65;;
60504;SDS011;46348;0.000;0.000;2024-01-11T11:29:46;1.70;;;1.60;;
60504;SDS011;46348;0.000;0.000;2024-01-11T11:32:13;2.95;;;2.00;;
60504;SDS011;46348;0.000;0.000;2024-01-11T11:34:42;2.22;;;1.70;;
60504;SDS011;46348;0.000;0.000;2024-01-11T11:37:12;1.90;;;1.77;;
60504;SDS011;46348;0.000;0.000;2024-01-11T11:39:38;2.50;;;1.90;;
60504;SDS011;46348;0.000;0.000;2024-01-11T11:42:07;2.80;;;1.90;;
60504;SDS011;46348;0.000;0.000;2024-01-11T11:44:33;3.55;;;1.80;;
60504;SDS011;46348;0.000;0.000;2024-01-11T11:47:21;1.70;;;1.60;;
60504;SDS011;46348;0.000;0.000;2024-01-11T11:52:39;2.53;;;1.63;;
60504;SDS011;46348;0.000;0.000;2024-01-11T11:55:07;2.25;;;1.77;;
60504;SDS011;46348;0.000;0.000;2024-01-11T11:57:34;2.75;;;1.90;;
60504;SDS011;46348;0.000;0.000;2024-01-11T12:00:02;1.65;;;1.55;;
60504;SDS011;46348;0.000;0.000;2024-01-11T12:02:31;3.38;;;2.00;;
60504;SDS011;46348;0.000;0.000;2024-01-11T12:04:57;3.03;;;1.85;;
60504;SDS011;46348;0.000;0.000;2024-01-11T12:07:24;1.70;;;1.50;;
60504;SDS011;46348;0.000;0.000;2024-01-11T12:09:50;3.60;;;1.85;;
60504;SDS011;46348;0.000;0.000;2024-01-11T12:12:18;1.92;;;1.80;;
60504;SDS011;46348;0.000;0.000;2024-01-11T12:14:48;1.98;;;1.73;;
60504;SDS011;46348;0.000;0.000;2024-01-11T12:17:15;1.63;;;1.45;;
60504;SDS011;46348;0.000;0.000;2024-01-11T12:19:41;1.63;;;1.45;;
60504;SDS011;46348;0.000;0.000;2024-01-11T12:22:08;1.98;;;1.50;;
60504;SDS011;46348;0.000;0.000;2024-01-11T12:24:34;1.92;;;1.58;;
60504;SDS011;46348;0.000;0.000;2024-01-11T12:27:01;1.83;;;1.60;;
60504;SDS011;46348;0.000;0.000;2024-01-11T12:29:30;2.40;;;1.55;;
60504;SDS011;46348;0.000;0.000;2024-01-11T12:32:16;1.70;;;1.60;;
60504;SDS011;46348;0.000;0.000;2024-01-11T12:34:45;2.30;;;1.70;;
60504;SDS011;46348;0.000;0.000;2024-01-11T12:37:12;2.03;;;1.77;;
60504;SDS011;46348;0.000;0.000;2024-01-11T12:39:38;1.63;;;1.40;;
60504;SDS011;46348;0.000;0.000;2024-01-11T12:42:04;2.47;;;1.60;;
60504;SDS011;46348;0.000;0.000;2024-01-11T12:44:30;1.90;;;1.58;;
60504;SDS011;46348;0.000;0.000;2024-01-11T12:46:58;1.65;;;1.55;;
60504;SDS011;46348;0.000;0.000;2024-01-11T12:49:24;1.83;;;1.52;;
60504;SDS011;46348;0.000;0.000;2024-01-11T12:51:50;2.15;;;1.75;;
60504;SDS011;46348;0.000;0.000;2024-01-11T12:54:16;3.00;;;1.60;;
60504;SDS011;46348;0.000;0.000;2024-01-11T12:56:45;2.22;;;1.60;;
60504;SDS011;46348;0.000;0.000;2024-01-11T12:59:11;2.10;;;1.73;;
60504;SDS011;46348;0.000;0.000;2024-01-11T13:01:40;1.98;;;1.80;;
60504;SDS011;46348;0.000;0.000;2024-01-11T13:04:09;2.15;;;1.63;;
60504;SDS011;46348;0.000;0.000;2024-01-11T13:06:36;3.20;;;1.55;;
60504;SDS011;46348;0.000;0.000;2024-01-11T13:09:02;1.75;;;1.58;;
60504;SDS011;46348;0.000;0.000;2024-01-11T13:11:29;3.50;;;1.60;;
60504;SDS011;46348;0.000;0.000;2024-01-11T13:13:56;2.33;;;1.35;;
60504;SDS011;46348;0.000;0.000;2024-01-11T13:16:26;2.63;;;1.58;;
60504;SDS011;46348;0.000;0.000;2024-01-11T13:18:52;2.45;;;1.70;;
60504;SDS011;46348;0.000;0.000;2024-01-11T13:21:18;2.10;;;1.73;;
60504;SDS011;46348;0.000;0.000;2024-01-11T13:23:44;3.40;;;1.80;;
60504;SDS011;46348;0.000;0.000;2024-01-11T13:26:10;2.08;;;1.88;;
60504;SDS011;46348;0.000;0.000;2024-01-11T13:28:37;3.22;;;1.70;;
60504;SDS011;46348;0.000;0.000;2024-01-11T13:31:03;4.47;;;1.80;;
60504;SDS011;46348;0.000;0.000;2024-01-11T13:33:29;4.18;;;1.90;;
60504;SDS011;46348;0.000;0.000;2024-01-11T13:35:55;2.22;;;1.70;;
60504;SDS011;46348;0.000;0.000;2024-01-11T13:38:41;2.33;;;1.80;;
60504;SDS011;46348;0.000;0.000;2024-01-11T13:41:07;2.92;;;1.73;;
60504;SDS011;46348;0.000;0.000;2024-01-11T13:43:34;2.88;;;1.70;;
60504;SDS011;46348;0.000;0.000;2024-01-11T13:46:00;4.10;;;1.88;;
60504;SDS011;46348;0.000;0.000;2024-01-11T13:48:30;2.72;;;1.92;;
60504;SDS011;46348;0.000;0.000;2024-01-11T13:50:57;3.25;;;1.80;;
60504;SDS011;46348;0.000;0.000;2024-01-11T13:53:23;2.40;;;1.88;;
60504;SDS011;46348;0.000;0.000;2024-01-11T13:55:49;4.50;;;1.75;;
60504;SDS011;46348;0.000;0.000;2024-01-11T13:58:16;3.15;;;1.50;;
60504;SDS011;46348;0.000;0.000;2024-01-11T14:00:43;2.63;;;1.60;;
60504;SDS011;46348;0.000;0.000;2024-01-11T14:03:09;1.80;;;1.42;;
60504;SDS011;46348;0.000;0.000;2024-01-11T14:05:36;2.33;;;1.77;;
60504;SDS011;46348;0.000;0.000;2024-01-11T14:08:03;2.63;;;1.63;;
60504;SDS011;46348;0.000;0.000;2024-01-11T14:10:32;3.67;;;1.75;;
60504;SDS011;46348;0.000;0.000;2024-01-11T14:13:01;2.92;;;1.80;;
60504;SDS011;46348;0.000;0.000;2024-01-11T14:15:28;2.80;;;1.63;;
60504;SDS011;46348;0.000;0.000;2024-01-11T14:17:54;3.55;;;1.63;;
60504;SDS011;46348;0.000;0.000;2024-01-11T14:20:20;3.00;;;1.58;;
60504;SDS011;46348;0.000;0.000;2024-01-11T14:22:47;3.70;;;1.33;;
60504;SDS011;46348;0.000;0.000;2024-01-11T14:25:17;2.50;;;1.45;;
60504;SDS011;46348;0.000;0.000;2024-01-11T14:27:44;4.63;;;1.55;;
60504;SDS011;46348;0.000;0.000;2024-01-11T14:30:13;2.33;;;1.75;;
60504;SDS011;46348;0.000;0.000;2024-01-11T14:33:00;2.65;;;1.80;;
60504;SDS011;46348;0.000;0.000;2024-01-11T14:35:26;2.88;;;2.00;;
60504;SDS011;46348;0.000;0.000;2024-01-11T14:37:52;4.95;;;1.63;;
60504;SDS011;46348;0.000;0.000;2024-01-11T14:40:18;2.15;;;1.60;;
60504;SDS011;46348;0.000;0.000;2024-01-11T14:42:44;2.83;;;1.48;;
60504;SDS011;46348;0.000;0.000;2024-01-11T14:45:11;2.78;;;1.50;;
60504;SDS011;46348;0.000;0.000;2024-01-11T14:47:37;2.65;;;1.80;;
60504;SDS011;46348;0.000;0.000;2024-01-11T14:50:03;4.32;;;1.75;;
60504;SDS011;46348;0.000;0.000;2024-01-11T14:52:30;3.13;;;1.67;;
60504;SDS011;46348;0.000;0.000;2024-01-11T14:54:57;2.35;;;1.77;;
60504;SDS011;46348;0.000;0.000;2024-01-11T14:57:23;2.88;;;2.03;;
60504;SDS011;46348;0.000;0.000;2024-01-11T14:59:49;1.88;;;1.70;;
60504;SDS011;46348;0.000;0.000;2024-01-11T15:02:15;5.28;;;1.45;;
60504;SDS011;46348;0.000;0.000;2024-01-11T15:04:41;2.63;;;1.67;;
60504;SDS011;46348;0.000;0.000;2024-01-11T15:07:07;4.47;;;1.90;;
60504;SDS011;46348;0.000;0.000;2024-01-11T15:09:36;4.63;;;1.90;;